Ad Dammam, Saudi Arabia
Current Conditions -  °F | °C
As of 7:00 AM on Sunday 21 Dec 2014 (Local Time) from OEDR Reporting Station
Clear Clear  
Wind Chill: 59°   Ceiling: Unl
Heat Index: 59°   Visibility: 6mi
Dew Point: 50°   Wind: 9mph
Humidity: 72%   Direction: 180°S
Pressure: 29.97"   Gusts: NA
Location:  26.43°N, 50.1°E
Report Text: OEDR 210400Z 18008KT CAVOK 15/10 Q1015 NOSIG
Loading
Personal Weather Stations






























Interactive Weather Map New forecast layout! Learn more

10-Day Weather Forecast

Advertisements
Track Severe Weather on mobile